createdAt,value
2018-02-15T00:01:34.625Z,12.50
2018-02-15T00:04:08.746Z,13.00
2018-02-15T00:06:37.614Z,14.48
2018-02-15T00:09:06.480Z,10.55
2018-02-15T00:11:35.371Z,15.90
2018-02-15T00:14:04.246Z,14.57
2018-02-15T00:16:33.188Z,14.52
2018-02-15T00:19:02.081Z,12.93
2018-02-15T00:21:30.963Z,19.20
2018-02-15T00:23:59.837Z,13.48
2018-02-15T00:26:28.746Z,17.02
2018-02-15T00:28:57.792Z,14.02
2018-02-15T00:31:26.666Z,14.50
2018-02-15T00:33:55.784Z,10.50
2018-02-15T00:36:24.646Z,13.48
2018-02-15T00:38:53.525Z,13.57
2018-02-15T00:41:22.649Z,13.73
2018-02-15T00:43:51.524Z,13.88
2018-02-15T00:46:20.401Z,14.70
2018-02-15T00:48:49.291Z,14.25
2018-02-15T00:51:18.217Z,19.52
2018-02-15T00:53:47.219Z,16.42
2018-02-15T00:56:16.108Z,18.33
2018-02-15T00:58:45.496Z,19.73
2018-02-15T01:01:14.365Z,15.68
2018-02-15T01:03:43.257Z,16.27
2018-02-15T01:06:12.146Z,21.48
2018-02-15T01:08:41.018Z,15.68
2018-02-15T01:11:09.927Z,20.95
2018-02-15T01:13:39.733Z,16.70
2018-02-15T01:16:08.631Z,21.95
2018-02-15T01:18:37.548Z,19.40
2018-02-15T01:21:06.413Z,20.52
2018-02-15T01:23:35.281Z,19.25
2018-02-15T01:26:04.196Z,21.45
2018-02-15T01:28:33.080Z,22.92
2018-02-15T01:31:02.117Z,15.75
2018-02-15T01:33:31.021Z,14.43
2018-02-15T01:36:04.848Z,18.20
2018-02-15T01:38:33.754Z,14.95
2018-02-15T01:41:02.630Z,15.10
2018-02-15T01:43:31.492Z,13.73
2018-02-15T01:46:00.402Z,23.30
2018-02-15T01:48:29.274Z,18.10
2018-02-15T01:50:58.139Z,19.83
2018-02-15T01:53:27.033Z,19.65
2018-02-15T01:55:56.037Z,19.42
2018-02-15T01:58:24.932Z,23.42
2018-02-15T02:00:53.841Z,23.15
2018-02-15T02:03:22.739Z,16.30
2018-02-15T02:05:51.617Z,18.30
2018-02-15T02:08:20.533Z,19.62
2018-02-15T02:10:49.413Z,24.42
2018-02-15T02:13:18.280Z,15.57
2018-02-15T02:15:47.188Z,21.12
2018-02-15T02:18:16.172Z,19.83
2018-02-15T02:20:45.037Z,23.77
2018-02-15T02:23:13.969Z,18.67
2018-02-15T02:25:47.355Z,21.95
2018-02-15T02:28:16.468Z,21.42
2018-02-15T02:30:45.332Z,23.20
2018-02-15T02:33:14.198Z,24.70
2018-02-15T02:35:43.123Z,24.55
2018-02-15T02:38:12.010Z,23.23
2018-02-15T02:40:40.876Z,21.73
2018-02-15T02:43:09.803Z,26.77
2018-02-15T02:45:38.699Z,17.77
2018-02-15T02:48:07.572Z,23.02
2018-02-15T02:50:36.481Z,18.98
2018-02-15T02:53:05.358Z,21.73
2018-02-15T02:55:34.233Z,20.42
2018-02-15T02:58:03.276Z,20.77
2018-02-15T03:00:32.236Z,28.48
2018-02-15T03:03:01.100Z,27.92
2018-02-15T03:05:30.012Z,23.15
2018-02-15T03:07:58.890Z,24.23
2018-02-15T03:10:27.768Z,23.58
2018-02-15T03:12:56.673Z,25.80
2018-02-15T03:15:25.545Z,24.42
2018-02-15T03:17:54.423Z,22.55
2018-02-15T03:20:23.340Z,26.98
2018-02-15T03:22:52.255Z,29.10
2018-02-15T03:25:21.143Z,23.10
2018-02-15T03:27:50.052Z,24.70
2018-02-15T03:30:18.923Z,25.33
2018-02-15T03:32:47.796Z,20.88
2018-02-15T03:35:16.700Z,26.05
2018-02-15T03:37:45.577Z,29.05
2018-02-15T03:40:14.456Z,29.85
2018-02-15T03:42:43.381Z,29.33
2018-02-15T03:45:12.286Z,26.90
2018-02-15T03:47:41.156Z,36.58
2018-02-15T03:50:10.070Z,27.00
2018-02-15T03:52:38.944Z,26.52
2018-02-15T03:55:07.855Z,28.87
2018-02-15T03:57:36.759Z,24.73
2018-02-15T04:00:05.717Z,22.65
2018-02-15T04:02:34.579Z,25.50
2018-02-15T04:05:03.480Z,25.05
2018-02-15T04:07:32.407Z,23.35
2018-02-15T04:10:01.424Z,28.73
2018-02-15T04:12:30.330Z,24.63
2018-02-15T04:14:59.231Z,21.45
2018-02-15T04:17:28.112Z,28.17
2018-02-15T04:19:57.120Z,17.95
2018-02-15T04:22:25.987Z,22.33
2018-02-15T04:24:54.852Z,24.60
2018-02-15T04:27:23.765Z,19.80
2018-02-15T04:29:52.641Z,23.58
2018-02-15T04:32:21.518Z,22.50
2018-02-15T04:34:50.653Z,24.42
2018-02-15T04:37:19.533Z,22.48
2018-02-15T04:39:48.437Z,31.67
2018-02-15T04:42:17.342Z,25.35
2018-02-15T04:44:46.220Z,23.60
2018-02-15T04:47:15.097Z,26.65
2018-02-15T04:49:43.994Z,32.88
2018-02-15T04:52:12.860Z,24.95
2018-02-15T04:54:41.751Z,23.77
2018-02-15T04:57:10.667Z,25.40
2018-02-15T04:59:39.770Z,20.10
2018-02-15T05:02:08.866Z,22.77
2018-02-15T05:04:37.771Z,27.23
2018-02-15T05:07:06.648Z,27.50
2018-02-15T05:09:35.520Z,26.27
2018-02-15T05:12:04.420Z,28.67
2018-02-15T05:14:33.518Z,30.73
2018-02-15T05:17:02.396Z,26.48
2018-02-15T05:19:31.305Z,25.50
2018-02-15T05:22:00.182Z,25.70
2018-02-15T05:24:29.184Z,29.42
2018-02-15T05:26:58.080Z,26.80
2018-02-15T05:29:26.960Z,22.30
2018-02-15T05:31:55.846Z,21.05
2018-02-15T05:34:24.758Z,26.48
2018-02-15T05:36:53.630Z,22.55
2018-02-15T05:39:22.637Z,25.67
2018-02-15T05:41:51.734Z,22.70
2018-02-15T05:44:20.621Z,28.87
2018-02-15T05:46:49.525Z,25.12
2018-02-15T05:49:18.529Z,26.35
2018-02-15T05:51:47.400Z,29.00
2018-02-15T05:54:16.275Z,29.10
2018-02-15T05:56:45.190Z,35.75
2018-02-15T05:59:14.081Z,29.73
2018-02-15T06:01:42.959Z,26.52
2018-02-15T06:04:11.882Z,23.58
2018-02-15T06:06:40.752Z,25.60
2018-02-15T06:09:09.630Z,30.55
2018-02-15T06:11:38.522Z,29.42
2018-02-15T06:14:07.401Z,27.15
2018-02-15T06:16:36.338Z,21.83
2018-02-15T06:19:05.228Z,28.98
2018-02-15T06:21:34.101Z,27.55
2018-02-15T06:24:02.980Z,23.85
2018-02-15T06:26:31.885Z,25.55
2018-02-15T06:29:00.762Z,27.40
2018-02-15T06:31:29.641Z,22.90
2018-02-15T06:33:58.618Z,22.70
2018-02-15T06:36:27.514Z,24.83
2018-02-15T06:38:56.407Z,24.37
2018-02-15T06:41:25.319Z,26.60
2018-02-15T06:43:54.226Z,21.50
2018-02-15T06:46:23.119Z,21.15
2018-02-15T06:48:52.037Z,27.10
2018-02-15T06:51:20.945Z,31.20
2018-02-15T06:53:49.850Z,21.50
2018-02-15T06:56:18.779Z,25.27
2018-02-15T06:58:47.660Z,25.10
2018-02-15T07:01:16.546Z,23.65
2018-02-15T07:03:45.474Z,27.98
2018-02-15T07:06:14.488Z,25.77
2018-02-15T07:08:43.385Z,23.65
2018-02-15T07:11:12.534Z,19.12
2018-02-15T07:13:47.394Z,19.20
2018-02-15T07:16:16.480Z,20.05
2018-02-15T07:18:46.730Z,26.95
2018-02-15T07:21:15.768Z,21.87
2018-02-15T07:23:45.111Z,20.50
2018-02-15T07:26:14.078Z,25.33
2018-02-15T07:28:43.028Z,25.85
2018-02-15T07:31:12.022Z,19.87
2018-02-15T07:33:40.967Z,22.25
2018-02-15T07:36:09.928Z,20.10
2018-02-15T07:38:38.933Z,19.70
2018-02-15T07:41:08.211Z,21.50
2018-02-15T07:43:37.180Z,18.87
2018-02-15T07:46:06.168Z,19.02
2018-02-15T07:48:35.520Z,23.12
2018-02-15T07:51:07.802Z,21.77
2018-02-15T07:53:48.840Z,22.75
2018-02-15T07:59:06.446Z,17.95
2018-02-15T08:01:36.054Z,23.83
2018-02-15T08:04:07.029Z,24.45
2018-02-15T08:06:36.343Z,20.67
2018-02-15T08:09:06.463Z,19.35
2018-02-15T08:11:37.438Z,26.42
2018-02-15T08:14:16.075Z,20.37
2018-02-15T08:16:59.405Z,30.42
2018-02-15T08:19:40.953Z,19.55
2018-02-15T08:24:52.129Z,26.20
2018-02-15T08:30:26.806Z,34.30
2018-02-15T08:33:01.268Z,27.70
2018-02-15T08:35:30.190Z,23.90
2018-02-15T08:37:59.070Z,19.70
2018-02-15T08:40:27.973Z,19.80
2018-02-15T08:42:56.918Z,20.37
2018-02-15T08:45:25.821Z,26.83
2018-02-15T08:47:54.787Z,25.20
2018-02-15T08:50:23.908Z,23.02
2018-02-15T08:52:52.773Z,20.17
2018-02-15T08:55:21.653Z,24.48
2018-02-15T08:57:50.555Z,24.87
2018-02-15T09:00:19.470Z,20.33
2018-02-15T09:02:48.353Z,21.47
2018-02-15T09:05:17.302Z,19.37
2018-02-15T09:07:46.547Z,21.30
2018-02-15T09:10:15.420Z,18.90
2018-02-15T09:12:44.369Z,26.70
2018-02-15T09:15:13.237Z,25.43
2018-02-15T09:17:42.116Z,21.23
2018-02-15T09:20:11.008Z,18.17
2018-02-15T09:22:40.204Z,18.20
2018-02-15T09:25:09.442Z,22.50
2018-02-15T09:27:38.354Z,16.90
2018-02-15T09:30:07.282Z,23.70
2018-02-15T09:32:36.185Z,22.13
2018-02-15T09:35:05.206Z,20.77
2018-02-15T09:37:34.084Z,19.63
2018-02-15T09:40:02.955Z,22.87
2018-02-15T09:42:31.858Z,20.40
2018-02-15T09:45:00.729Z,15.90
2018-02-15T09:47:29.610Z,14.80
2018-02-15T09:49:58.524Z,23.67
2018-02-15T09:52:27.428Z,21.33
2018-02-15T09:54:56.326Z,26.30
2018-02-15T09:57:25.238Z,28.03
2018-02-15T09:59:54.109Z,17.33
2018-02-15T10:02:22.980Z,18.87
2018-02-15T10:04:51.872Z,17.23
2018-02-15T10:07:20.776Z,20.13
2018-02-15T10:09:50.069Z,20.73
2018-02-15T10:12:19.190Z,20.90
2018-02-15T10:14:48.105Z,20.77
2018-02-15T10:17:16.984Z,18.43
2018-02-15T10:19:45.911Z,13.30
2018-02-15T10:22:14.800Z,16.47
2018-02-15T10:24:43.679Z,13.33
2018-02-15T10:27:12.913Z,23.60
2018-02-15T10:29:41.820Z,16.83
2018-02-15T10:32:10.684Z,16.93
2018-02-15T10:34:39.591Z,17.13
2018-02-15T10:37:08.646Z,12.80
2018-02-15T10:39:37.665Z,20.30
2018-02-15T10:42:06.973Z,15.83
2018-02-15T10:44:35.877Z,16.23
2018-02-15T10:47:04.753Z,14.20
2018-02-15T10:49:33.671Z,14.77
2018-02-15T10:52:02.794Z,14.30
2018-02-15T10:54:31.662Z,17.63
2018-02-15T10:57:00.581Z,14.93
2018-02-15T10:59:29.484Z,13.20
2018-02-15T11:02:04.161Z,13.40
2018-02-15T11:04:33.997Z,13.03
2018-02-15T11:07:02.857Z,14.90
2018-02-15T11:09:31.814Z,15.40
2018-02-15T11:12:00.848Z,18.57
2018-02-15T11:14:29.721Z,20.93
2018-02-15T11:16:58.969Z,15.17
2018-02-15T11:19:27.909Z,15.80
2018-02-15T11:21:56.787Z,20.17
2018-02-15T11:24:25.705Z,15.67
2018-02-15T11:26:54.581Z,11.40
2018-02-15T11:29:23.453Z,9.70
2018-02-15T11:31:52.353Z,15.23
2018-02-15T11:34:21.223Z,13.00
2018-02-15T11:36:50.109Z,11.80
2018-02-15T11:39:19.014Z,15.97
2018-02-15T11:41:47.988Z,17.30
2018-02-15T11:44:16.864Z,10.23
2018-02-15T11:46:45.779Z,10.80
2018-02-15T11:49:14.659Z,13.63
2018-02-15T11:51:43.643Z,16.27
2018-02-15T11:54:12.664Z,12.93
2018-02-15T11:56:41.545Z,12.30
2018-02-15T11:59:10.414Z,13.43
2018-02-15T12:01:39.310Z,9.77
2018-02-15T12:04:08.228Z,9.93
2018-02-15T12:06:37.093Z,15.63
2018-02-15T12:09:06.096Z,14.13
2018-02-15T12:11:35.040Z,12.60
2018-02-15T12:14:04.162Z,11.63
2018-02-15T12:16:33.058Z,12.30
2018-02-15T12:19:01.915Z,11.23
2018-02-15T12:21:30.781Z,11.10
2018-02-15T12:23:59.684Z,12.97
2018-02-15T12:26:34.962Z,8.37
2018-02-15T12:29:03.857Z,9.63
2018-02-15T12:31:32.724Z,8.93
2018-02-15T12:34:01.611Z,7.80
2018-02-15T12:36:30.544Z,10.77
2018-02-15T12:38:59.408Z,9.33
2018-02-15T12:41:28.473Z,11.93
2018-02-15T12:43:57.429Z,7.53
2018-02-15T12:46:26.312Z,10.87
2018-02-15T12:48:55.188Z,12.07
2018-02-15T12:51:24.109Z,9.67
2018-02-15T12:53:52.984Z,11.83
2018-02-15T12:56:21.855Z,10.47
2018-02-15T12:58:50.753Z,10.73
2018-02-15T13:01:19.629Z,9.20
2018-02-15T13:03:48.522Z,8.80
2018-02-15T13:06:17.616Z,10.67
2018-02-15T13:08:46.752Z,8.07
2018-02-15T13:11:15.632Z,8.03
2018-02-15T13:13:44.534Z,9.50
2018-02-15T13:16:19.645Z,10.20
2018-02-15T13:18:48.677Z,8.20
2018-02-15T13:21:17.536Z,7.57
2018-02-15T13:23:46.444Z,7.23
2018-02-15T13:26:15.381Z,9.17
2018-02-15T13:28:44.279Z,9.57
2018-02-15T13:31:13.139Z,6.50
2018-02-15T13:33:42.060Z,10.57
2018-02-15T13:36:10.971Z,9.93
2018-02-15T13:38:39.840Z,7.87
2018-02-15T13:41:08.761Z,7.47
2018-02-15T13:43:37.629Z,10.20
2018-02-15T13:46:06.547Z,11.47
2018-02-15T13:48:35.458Z,10.33
2018-02-15T13:51:04.330Z,10.23
2018-02-15T13:53:33.428Z,8.27
2018-02-15T13:56:02.377Z,10.80
2018-02-15T13:58:31.397Z,8.97
2018-02-15T14:01:00.278Z,9.63
2018-02-15T14:03:29.243Z,12.07
2018-02-15T14:05:58.174Z,9.50
2018-02-15T14:08:27.138Z,7.17
2018-02-15T14:10:56.217Z,9.90
2018-02-15T14:13:25.095Z,9.00
2018-02-15T14:15:54.890Z,13.70
2018-02-15T14:18:25.348Z,26.30
2018-02-15T14:20:54.237Z,10.20
2018-02-15T14:23:23.121Z,8.33
2018-02-15T14:25:52.044Z,9.57
2018-02-15T14:28:20.934Z,12.80
2018-02-15T14:30:49.908Z,12.70
2018-02-15T14:33:18.843Z,8.00
2018-02-15T14:35:47.764Z,14.03
2018-02-15T14:38:16.855Z,13.70
2018-02-15T14:40:46.016Z,11.83
2018-02-15T14:43:15.136Z,11.03
2018-02-15T14:45:44.042Z,14.00
2018-02-15T14:48:13.222Z,12.50
2018-02-15T14:50:42.137Z,9.37
2018-02-15T14:53:11.236Z,9.80
2018-02-15T14:55:40.307Z,17.30
2018-02-15T14:58:09.185Z,13.07
2018-02-15T15:00:38.056Z,10.27
2018-02-15T15:03:07.207Z,12.90
2018-02-15T15:05:36.080Z,10.90
2018-02-15T15:08:05.229Z,12.80
2018-02-15T15:10:34.158Z,15.13
2018-02-15T15:13:03.036Z,11.27
2018-02-15T15:15:31.901Z,9.47
2018-02-15T15:18:00.808Z,14.43
2018-02-15T15:20:29.965Z,11.10
2018-02-15T15:22:58.889Z,13.38
2018-02-15T15:25:28.050Z,23.03
2018-02-15T15:27:56.949Z,13.93
2018-02-15T15:30:25.851Z,11.30
2018-02-15T15:32:54.937Z,10.90
2018-02-15T15:35:23.821Z,21.33
2018-02-15T15:37:52.695Z,17.00
2018-02-15T15:40:21.600Z,11.50
2018-02-15T15:42:50.484Z,16.77
2018-02-15T15:45:19.356Z,9.03
2018-02-15T15:47:48.453Z,11.77
2018-02-15T15:50:17.335Z,14.23
2018-02-15T15:52:46.299Z,10.23
2018-02-15T15:55:15.224Z,12.40
2018-02-15T15:57:48.645Z,15.20
2018-02-15T16:00:17.540Z,10.60
2018-02-15T16:02:46.415Z,10.00
2018-02-15T16:05:15.293Z,13.37
2018-02-15T16:07:44.226Z,8.73
2018-02-15T16:10:13.110Z,11.20
2018-02-15T16:12:41.981Z,10.03
2018-02-15T16:15:10.876Z,8.73
2018-02-15T16:17:39.762Z,15.83
2018-02-15T16:20:08.630Z,8.50
2018-02-15T16:22:37.861Z,9.90
2018-02-15T16:25:06.724Z,13.43
2018-02-15T16:27:35.580Z,9.70
2018-02-15T16:30:04.572Z,9.30
2018-02-15T16:32:33.436Z,8.93
2018-02-15T16:35:02.292Z,9.77
2018-02-15T16:37:31.185Z,9.90
2018-02-15T16:40:00.068Z,9.97
2018-02-15T16:42:28.950Z,7.80
2018-02-15T16:44:58.084Z,11.17
2018-02-15T16:47:27.120Z,10.60
2018-02-15T16:49:56.015Z,8.13
2018-02-15T16:52:24.935Z,13.77
2018-02-15T16:54:53.913Z,9.30
2018-02-15T16:57:22.952Z,10.33
2018-02-15T16:59:51.895Z,12.83
2018-02-15T17:02:20.860Z,8.40
2018-02-15T17:04:50.204Z,10.70
2018-02-15T17:07:19.162Z,10.80
2018-02-15T17:09:48.259Z,11.87
2018-02-15T17:12:17.279Z,8.57
2018-02-15T17:14:46.501Z,12.00
2018-02-15T17:17:15.421Z,9.87
2018-02-15T17:19:44.828Z,8.70
2018-02-15T17:22:13.795Z,10.83
2018-02-15T17:24:43.171Z,8.63
2018-02-15T17:27:12.324Z,9.20
2018-02-15T17:29:41.220Z,11.83
2018-02-15T17:32:10.081Z,9.77
2018-02-15T17:34:39.117Z,10.93
2018-02-15T17:37:08.249Z,11.10
2018-02-15T17:39:37.105Z,11.27
2018-02-15T17:42:05.969Z,9.27
2018-02-15T17:44:34.882Z,13.50
2018-02-15T17:47:03.760Z,16.90
2018-02-15T17:49:32.675Z,11.70
2018-02-15T17:52:01.554Z,11.83
2018-02-15T17:54:30.425Z,10.67
2018-02-15T17:56:59.379Z,17.03
2018-02-15T17:59:28.384Z,11.80
2018-02-15T18:01:57.462Z,16.17
2018-02-15T18:04:26.338Z,13.73
2018-02-15T18:06:55.235Z,9.93
2018-02-15T18:09:24.115Z,11.87
2018-02-15T18:11:52.990Z,11.10
2018-02-15T18:14:21.926Z,11.00
2018-02-15T18:16:50.819Z,14.20
2018-02-15T18:19:19.692Z,14.87
2018-02-15T18:21:48.628Z,21.13
2018-02-15T18:24:17.492Z,13.60
2018-02-15T18:26:46.569Z,14.67
2018-02-15T18:29:15.661Z,13.53
2018-02-15T18:31:44.532Z,15.23
2018-02-15T18:34:13.404Z,11.80
2018-02-15T18:36:42.316Z,17.53
2018-02-15T18:39:11.188Z,16.00
2018-02-15T18:41:40.055Z,15.77
2018-02-15T18:44:08.957Z,14.37
2018-02-15T18:46:38.026Z,14.40
2018-02-15T18:49:06.893Z,23.77
2018-02-15T18:51:35.956Z,14.43
2018-02-15T18:54:04.860Z,15.70
2018-02-15T18:56:33.732Z,17.53
2018-02-15T18:59:02.637Z,16.77
2018-02-15T19:01:31.520Z,17.90
2018-02-15T19:04:00.399Z,19.23
2018-02-15T19:06:29.290Z,16.70
2018-02-15T19:08:58.169Z,18.40
2018-02-15T19:11:27.044Z,14.20
2018-02-15T19:13:55.953Z,16.50
2018-02-15T19:16:25.021Z,15.20
2018-02-15T19:18:53.891Z,14.90
2018-02-15T19:21:22.805Z,18.70
2018-02-15T19:23:51.669Z,16.13
2018-02-15T19:26:20.565Z,18.23
2018-02-15T19:28:49.705Z,17.47
2018-02-15T19:31:18.577Z,19.77
2018-02-15T19:33:47.455Z,15.33
2018-02-15T19:36:16.364Z,18.47
2018-02-15T19:38:45.769Z,19.83
2018-02-15T19:41:14.681Z,20.50
2018-02-15T19:43:43.628Z,18.00
2018-02-15T19:46:12.518Z,16.90
2018-02-15T19:48:41.430Z,18.67
2018-02-15T19:51:10.353Z,21.90
2018-02-15T19:53:39.328Z,19.27
2018-02-15T19:56:08.430Z,27.23
2018-02-15T19:58:37.363Z,24.57
2018-02-15T20:01:06.312Z,18.73
2018-02-15T20:03:35.208Z,23.63
2018-02-15T20:06:04.326Z,17.93
2018-02-15T20:08:33.364Z,22.37
2018-02-15T20:11:02.362Z,24.73
2018-02-15T20:13:31.665Z,18.13
2018-02-15T20:16:00.761Z,25.60
2018-02-15T20:18:29.776Z,25.40
2018-02-15T20:20:58.778Z,21.17
2018-02-15T20:23:27.718Z,21.93
2018-02-15T20:26:02.413Z,27.30
2018-02-15T20:28:31.609Z,30.10
2018-02-15T20:31:00.605Z,26.60
2018-02-15T20:33:29.745Z,27.33
2018-02-15T20:35:59.346Z,25.17
2018-02-15T20:38:34.073Z,25.50
2018-02-15T20:41:02.977Z,26.93
2018-02-15T20:43:31.866Z,24.37
2018-02-15T20:46:00.780Z,26.33
2018-02-15T20:48:29.675Z,27.30
2018-02-15T20:51:04.491Z,24.70
2018-02-15T20:53:40.425Z,29.00
2018-02-15T20:56:09.340Z,26.10
2018-02-15T20:58:38.246Z,28.00
2018-02-15T21:01:07.123Z,28.20
2018-02-15T21:03:36.060Z,23.40
2018-02-15T21:06:04.944Z,30.17
2018-02-15T21:08:33.813Z,27.80
2018-02-15T21:11:02.734Z,27.00
2018-02-15T21:13:31.616Z,34.40
2018-02-15T21:16:00.698Z,26.37
2018-02-15T21:18:29.605Z,33.90
2018-02-15T21:20:58.489Z,31.63
2018-02-15T21:23:27.377Z,36.90
2018-02-15T21:25:56.273Z,27.37
2018-02-15T21:28:25.161Z,34.87
2018-02-15T21:30:54.044Z,34.10
2018-02-15T21:33:23.161Z,34.90
2018-02-15T21:35:52.035Z,30.50
2018-02-15T21:38:20.910Z,33.80
2018-02-15T21:40:49.825Z,26.53
2018-02-15T21:43:18.697Z,30.37
2018-02-15T21:45:47.569Z,30.73
2018-02-15T21:48:16.470Z,30.83
2018-02-15T21:50:45.369Z,33.33
2018-02-15T21:53:14.477Z,29.60
2018-02-15T21:55:43.587Z,29.93
2018-02-15T21:58:12.459Z,32.27
2018-02-15T22:00:41.334Z,35.00
2018-02-15T22:03:10.244Z,32.07
2018-02-15T22:05:39.113Z,35.13
2018-02-15T22:08:07.990Z,35.50
2018-02-15T22:10:36.893Z,33.10
2018-02-15T22:13:05.773Z,31.10
2018-02-15T22:15:34.664Z,37.00
2018-02-15T22:18:03.843Z,29.13
2018-02-15T22:20:32.712Z,30.97
2018-02-15T22:23:01.602Z,39.27
2018-02-15T22:25:30.517Z,30.70
2018-02-15T22:27:59.390Z,34.73
2018-02-15T22:30:28.280Z,35.37
2018-02-15T22:32:57.207Z,34.17
2018-02-15T22:35:26.202Z,32.53
2018-02-15T22:37:55.161Z,32.97
2018-02-15T22:40:24.057Z,34.63
2018-02-15T22:42:52.937Z,31.73
2018-02-15T22:45:21.800Z,29.00
2018-02-15T22:47:50.708Z,33.40
2018-02-15T22:50:19.584Z,32.43
2018-02-15T22:52:48.464Z,32.97
2018-02-15T22:55:17.363Z,37.07
2018-02-15T22:57:46.253Z,32.27
2018-02-15T23:00:15.177Z,30.90
2018-02-15T23:02:44.094Z,36.93
2018-02-15T23:05:12.969Z,28.23
2018-02-15T23:07:41.852Z,31.20
2018-02-15T23:10:10.781Z,36.70
2018-02-15T23:12:39.659Z,33.50
2018-02-15T23:15:08.529Z,29.93
2018-02-15T23:17:37.424Z,33.40
2018-02-15T23:20:06.496Z,30.83
2018-02-15T23:22:35.360Z,28.60
2018-02-15T23:25:04.262Z,33.43
2018-02-15T23:27:33.132Z,30.60
2018-02-15T23:30:02.001Z,36.90
2018-02-15T23:32:31.005Z,33.90
2018-02-15T23:34:59.880Z,36.30
2018-02-15T23:37:29.158Z,29.63
2018-02-15T23:39:58.061Z,37.67
2018-02-15T23:42:26.968Z,35.97
2018-02-15T23:44:55.828Z,36.40
2018-02-15T23:47:24.733Z,37.60
2018-02-15T23:49:53.609Z,34.60
2018-02-15T23:52:22.507Z,33.97
2018-02-15T23:54:51.413Z,33.53
2018-02-15T23:57:20.518Z,33.97
2018-02-15T23:59:49.621Z,34.80
